This is the latest recevied weather packets stored in our database for station/object KD4UFD. If no packets are shown the sender has not sent any weather packets the latest 1 day(s).
| Time | Temp. | Humidity | Pressure | Rain* | Wind** | Luminosity | Snow |
|---|---|---|---|---|---|---|---|
| 1778010280 | 22.78° C | 49% | 1012.2 hPa | 0 mm | 0.45 m/s, 204° | 242 W/m² | - |
| 1778009980 | 23.33° C | 47% | 1012.1 hPa | 0 mm | 2.24 m/s, 242° | 234 W/m² | - |
| 1778009678 | 23.33° C | 48% | 1012.1 hPa | 0 mm | 1.34 m/s, 231° | 347 W/m² | - |
| 1778009376 | 23.33° C | 50% | 1012.1 hPa | 0 mm | 0.89 m/s, 148° | 325 W/m² | - |
| 1778009074 | 23.89° C | 49% | 1012.2 hPa | 0 mm | 1.34 m/s, 259° | 285 W/m² | - |
| 1778008771 | 23.33° C | 47% | 1012.5 hPa | 0 mm | 0 m/s | 369 W/m² | - |
| 1778008470 | 23.33° C | 49% | 1012.4 hPa | 0 mm | 0.45 m/s, 77° | 384 W/m² | - |
| 1778008166 | 23.89° C | 49% | 1012.7 hPa | 0 mm | 0.45 m/s, 291° | 412 W/m² | - |
| 1778007861 | 23.89° C | 46% | 1012.5 hPa | 0 mm | 1.34 m/s, 228° | 423 W/m² | - |
| 1778007557 | 23.89° C | 50% | 1012.4 hPa | 0 mm | 1.79 m/s, 237° | 422 W/m² | - |
| 1778007255 | 23.89° C | 48% | 1012.7 hPa | 0 mm | 1.79 m/s, 225° | 549 W/m² | - |
| 1778006950 | 23.89° C | 51% | 1012.9 hPa | 0 mm | 0.45 m/s, 176° | 524 W/m² | - |
| 1778006647 | 23.33° C | 50% | 1012.8 hPa | 0 mm | 1.34 m/s, 181° | 445 W/m² | - |
| 1778006345 | 23.89° C | 50% | 1013 hPa | 0 mm | 1.79 m/s, 222° | 534 W/m² | - |
| 1778006041 | 23.89° C | 52% | 1013 hPa | 0 mm | 0.45 m/s, 207° | 493 W/m² | - |
| 1778005738 | 23.33° C | 50% | 1013.2 hPa | 0 mm | 2.24 m/s, 230° | 499 W/m² | - |
| 1778005435 | 23.33° C | 51% | 1013.3 hPa | 0 mm | 1.34 m/s, 223° | 457 W/m² | - |
| 1778005131 | 23.89° C | 51% | 1013.5 hPa | 0 mm | 1.34 m/s, 188° | 430 W/m² | - |
| 1778004829 | 23.33° C | 52% | 1013.5 hPa | 0 mm | 1.34 m/s, 214° | 554 W/m² | - |
| 1778004525 | 23.89° C | 51% | 1013.5 hPa | 0 mm | 1.34 m/s, 223° | 445 W/m² | - |
| 1778004222 | 23.89° C | 50% | 1013.7 hPa | 0 mm | 1.34 m/s, 354° | 609 W/m² | - |
| 1778003919 | 23.33° C | 51% | 1014 hPa | 0 mm | 1.34 m/s, 205° | 652 W/m² | - |
| 1778003614 | 23.89° C | 48% | 1013.8 hPa | 0 mm | 3.13 m/s, 234° | 442 W/m² | - |
| 1778003311 | 23.89° C | 52% | 1013.9 hPa | 0 mm | 0.89 m/s, 217° | 474 W/m² | - |
| 1778003009 | 23.33° C | 50% | 1014.1 hPa | 0 mm | 0.89 m/s, 185° | 426 W/m² | - |
* Rain latest hour (hover to see other rain measurements)
** Current wind speed in m/s (hover to see current wind gust speed)